Flight Track Log - Related Links

Times and Time Zones

All times are in EDT time to prevent confusion due to time zone crossing. See the SWA1887 flight status page for this flight to view local times or setup timezone preferences in your user account.

Time Position Orientation Groundspeed Altitude Reporting Facility
EDT Latitude Longitude Course Direction KTS MPH feet Rate Location/Type
Sun 08:03:05 AM 39.7333 -86.2833 21° North 154 177 1,600  Level Indianapolis TRACON
Sun 08:03:59 AM 39.7667 -86.2667 21° North 224 258 3,200 1,895 Climbing Indianapolis TRACON
Sun 08:04:59 AM 39.7833 -86.3333 288° West 251 289 5,200 2,708 Climbing Indianapolis TRACON
Sun 08:06:23 AM 39.7392 -86.4483 243° Southwest 261 300 9,700 2,731 Climbing Indianapolis Center
Sun 08:07:24 AM 39.7228 -86.5542 259° West 308 354 11,800 2,754 Climbing Indianapolis Center
Sun 08:08:25 AM 39.7167 -86.6772 266° West 336 387 15,300 3,295 Climbing Indianapolis Center
Sun 08:09:26 AM 39.7100 -86.8056 266° West 350 403 18,500 3,049 Climbing Indianapolis Center
Sun 08:10:27 AM 39.7028 -86.9422 266° West 371 427 21,500 2,803 Climbing Indianapolis Center
Sun 08:11:28 AM 39.6950 -87.0836 266° West 386 444 24,200 2,557 Climbing Indianapolis Center
Sun 08:12:29 AM 39.6864 -87.2303 266° West 399 459 26,700 2,115 Climbing Indianapolis Center
Sun 08:13:30 AM 39.6792 -87.3811 266° West 411 473 28,500 1,770 Climbing Indianapolis Center
Sun 08:14:31 AM 39.6697 -87.5369 266° West 426 490 30,300 1,721 Climbing Indianapolis Center
Sun 08:15:32 AM 39.6600 -87.6958 266° West 436 502 32,000 836 Climbing Indianapolis Center
Sun 08:16:33 AM 39.6511 -87.8528 266° West 434 499 32,000  Level Indianapolis Center
Sun 08:17:34 AM 39.6425 -88.0086 266° West 433 498 32,000 984 Level Indianapolis Center
Sun 08:18:35 AM 39.6300 -88.1897 265° West 431 496 34,000 1,333 Climbing Indianapolis Center
Sun 08:19:04 AM 39.6256 -88.2439 264° West 431 496 34,000 733 Level Kansas City Center
Sun 08:20:05 AM 39.6167 -88.3992 266° West 431 496 35,100 1,190 Climbing Kansas City Center
Sun 08:21:05 AM 39.6061 -88.5683 265° West 431 496 36,400 1,587 Climbing Kansas City Center
Sun 08:22:06 AM 39.5956 -88.7261 265° West 434 499 38,300 1,475 Climbing Kansas City Center
Sun 08:23:07 AM 39.6019 -88.8778 273° West 436 502 39,400 836 Climbing Kansas City Center
Sun 08:24:08 AM 39.6444 -89.0206 291° West 429 494 40,000 298 Climbing Kansas City Center
Sun 08:25:08 AM 39.6869 -89.1633 291° West 424 488 40,000  Level Kansas City Center
Sun 08:26:09 AM 39.7303 -89.3069 291° West 427 491 40,000  Level Kansas City Center
Sun 08:27:10 AM 39.7731 -89.4469 292° West 421 484 40,000  Level Kansas City Center
Sun 08:28:11 AM 39.8128 -89.5867 290° West 415 478 40,000  Level Kansas City Center
Sun 08:29:11 AM 39.8453 -89.7322 286° West 420 483 40,000  Level Kansas City Center
Sun 08:30:12 AM 39.8622 -89.8828 278° West 423 487 40,000  Level Kansas City Center
Sun 08:31:13 AM 39.8800 -90.0336 279° West 421 484 40,000  Level Kansas City Center
Sun 08:32:13 AM 39.8961 -90.1842 278° West 419 482 40,000  Level Kansas City Center
Sun 08:33:14 AM 39.9119 -90.3350 278° West 420 483 40,000  Level Kansas City Center
Sun 08:34:15 AM 39.9289 -90.4875 278° West 422 486 40,000  Level Kansas City Center
Sun 08:35:16 AM 39.9447 -90.6394 278° West 422 486 40,000  Level Kansas City Center
Sun 08:36:17 AM 39.9614 -90.7917 278° West 423 487 40,000  Level Kansas City Center
Sun 08:37:18 AM 39.9775 -90.9436 278° West 422 486 40,000  Level Kansas City Center
Sun 08:38:18 AM 39.9944 -91.1064 278° West 423 487 40,000  Level Kansas City Center
Sun 08:39:19 AM 40.0086 -91.2569 277° West 422 486 40,000  Level Kansas City Center
Sun 08:40:20 AM 40.0236 -91.4075 277° West 421 484 40,000  Level Kansas City Center
Sun 08:41:21 AM 40.0381 -91.5572 277° West 420 483 40,000  Level Kansas City Center
Sun 08:42:22 AM 40.0528 -91.7064 277° West 418 481 40,000  Level Kansas City Center
Sun 08:43:23 AM 40.0681 -91.8544 278° West 415 478 40,000  Level Kansas City Center
Sun 08:44:24 AM 40.0844 -92.0317 277° West 413 475 40,000  Level Kansas City Center
Sun 08:45:25 AM 40.0986 -92.1789 277° West 411 473 40,000  Level Kansas City Center
Sun 08:46:25 AM 40.1117 -92.3269 277° West 411 473 40,000  Level Kansas City Center
Sun 08:47:26 AM 40.1256 -92.4842 277° West 411 473 40,000  Level Kansas City Center
Sun 08:48:27 AM 40.1478 -92.6242 282° West 413 475 40,000  Level Kansas City Center
Sun 08:49:28 AM 40.1919 -92.7575 293° West 417 480 40,000  Level Kansas City Center
Sun 08:50:29 AM 40.2439 -92.9122 294° West 417 480 40,000  Level Kansas City Center
Sun 08:51:30 AM 40.2886 -93.0444 294° West 418 481 40,000  Level Kansas City Center
Sun 08:52:31 AM 40.3358 -93.1847 294° West 421 484 40,000  Level Kansas City Center
Sun 08:53:32 AM 40.3811 -93.3197 294° West 412 474 40,000  Level Kansas City Center
Sun 08:54:33 AM 40.4264 -93.4550 294° West 408 470 40,000  Level Kansas City Center
Sun 08:55:34 AM 40.4719 -93.5897 294° West 407 468 40,000  Level Kansas City Center
Sun 08:56:35 AM 40.5169 -93.7250 294° West 407 468 40,000  Level Kansas City Center
Sun 08:57:36 AM 40.5606 -93.8619 293° West 407 468 40,000  Level Minneapolis Center
Sun 08:58:36 AM 40.6122 -94.0258 293° West 407 468 40,000  Level Minneapolis Center
Sun 08:59:37 AM 40.6561 -94.1603 293° West 405 466 40,000  Level Minneapolis Center
Sun 09:00:38 AM 40.7014 -94.2944 294° West 404 465 40,000  Level Minneapolis Center
Sun 09:01:39 AM 40.7464 -94.4283 294° West 403 464 40,000  Level Minneapolis Center
Sun 09:02:40 AM 40.7908 -94.5667 293° West 399 459 40,000  Level Minneapolis Center
Sun 09:03:41 AM 40.8367 -94.7000 294° West 399 459 40,000  Level Minneapolis Center
Sun 09:04:42 AM 40.8792 -94.8347 293° West 399 459 40,000  Level Minneapolis Center
Sun 09:05:43 AM 40.9228 -94.9711 293° West 402 463 40,000  Level Minneapolis Center
Sun 09:06:43 AM 40.9589 -95.0792 294° West 403 464 40,000  Level Minneapolis Center
Sun 09:07:45 AM 41.0111 -95.2425 293° West 402 463 40,000  Level Minneapolis Center
Sun 09:08:45 AM 41.0544 -95.3792 293° West 402 463 40,000  Level Minneapolis Center
Sun 09:09:46 AM 41.0969 -95.5172 292° West 403 464 40,000  Level Minneapolis Center
Sun 09:10:47 AM 41.1397 -95.6508 293° West 405 466 40,000  Level Minneapolis Center
Sun 09:11:48 AM 41.1764 -95.8236 286° West 409 471 40,000  Level Minneapolis Center
Sun 09:12:49 AM 41.1881 -95.9742 276° West 413 475 40,000  Level Minneapolis Center
Sun 09:13:50 AM 41.2022 -96.1244 277° West 410 472 40,000  Level Minneapolis Center
Sun 09:14:51 AM 41.2147 -96.2772 276° West 414 476 40,000  Level Minneapolis Center
Sun 09:15:51 AM 41.2269 -96.4136 277° West 416 479 40,000  Level Minneapolis Center
Sun 09:16:52 AM 41.2400 -96.5669 277° West 416 479 40,000  Level Minneapolis Center
Sun 09:17:53 AM 41.2525 -96.7200 276° West 417 480 40,000  Level Minneapolis Center
Sun 09:18:54 AM 41.2650 -96.8767 276° West 423 487 40,000  Level Minneapolis Center
Sun 09:19:55 AM 41.2778 -97.0286 276° West 416 479 40,000  Level Minneapolis Center
Sun 09:21:08 AM 41.2894 -97.1806 276° West 413 475 40,000  Level Minneapolis Center
Sun 09:22:09 AM 41.3053 -97.3914 276° West 410 472 40,000  Level Minneapolis Center
Sun 09:23:10 AM 41.3158 -97.5258 276° West 408 470 40,000  Level Minneapolis Center
Sun 09:24:11 AM 41.3267 -97.6772 275° West 410 472 40,000  Level Minneapolis Center
Sun 09:25:12 AM 41.3392 -97.8433 276° West 410 472 40,000  Level Minneapolis Center
Sun 09:26:13 AM 41.3508 -97.9961 276° West 413 475 40,000  Level Minneapolis Center
Sun 09:27:14 AM 41.3606 -98.1325 275° West 414 476 40,000  Level Minneapolis Center
Sun 09:28:15 AM 41.3722 -98.3150 275° West 414 476 40,000  Level Minneapolis Center
Sun 09:29:16 AM 41.3508 -98.4508 258° West 422 486 40,000  Level Minneapolis Center
Sun 09:30:29 AM 41.3164 -98.5997 253° West 423 487 40,000  Level Minneapolis Center
Sun 09:31:30 AM 41.2728 -98.7772 252° West 422 486 40,000  Level Minneapolis Center
Sun 09:32:15 AM 41.2428 -98.8972 252° West 419 482 40,000  Level Denver Center
Sun 09:33:15 AM 41.2097 -99.0367 253° West 415 478 40,000  Level Denver Center
Sun 09:34:16 AM 41.1831 -99.1908 257° West 409 471 40,000  Level Denver Center
Sun 09:35:16 AM 41.1550 -99.3361 256° West 408 470 40,000  Level Denver Center
Sun 09:36:17 AM 41.1281 -99.4794 256° West 407 468 40,000  Level Denver Center
Sun 09:37:17 AM 41.0969 -99.6417 256° West 407 468 40,000  Level Denver Center
Sun 09:38:18 AM 41.0725 -99.7722 256° West 406 467 40,000  Level Denver Center
Sun 09:39:19 AM 41.0433 -99.9183 255° West 404 465 40,000  Level Denver Center
Sun 09:40:19 AM 41.0122 -100.0794 256° West 405 466 40,000  Level Denver Center
Sun 09:41:20 AM 40.9847 -100.2181 255° West 406 467 40,000  Level Denver Center
Sun 09:42:21 AM 40.9575 -100.3567 255° West 408 470 40,000  Level Denver Center
Sun 09:43:22 AM 40.9264 -100.5181 256° West 407 468 40,000  Level Denver Center
Sun 09:44:22 AM 40.8986 -100.6575 255° West 411 473 40,000  Level Denver Center
Sun 09:45:23 AM 40.8650 -100.8147 254° West 414 476 40,000  Level Denver Center
Sun 09:46:24 AM 40.8361 -100.9517 254° West 413 475 40,000  Level Denver Center
Sun 09:47:25 AM 40.8083 -101.0889 255° West 408 470 40,000  Level Denver Center
Sun 09:48:25 AM 40.7747 -101.2492 255° West 406 467 40,000  Level Denver Center
Sun 09:49:26 AM 40.7461 -101.3889 255° West 411 473 40,000  Level Denver Center
Sun 09:50:27 AM 40.7164 -101.5272 254° West 410 472 40,000  Level Denver Center
Sun 09:51:28 AM 40.6819 -101.6889 254° West 412 474 40,000 -148 Level Denver Center
Sun 09:52:29 AM 40.6522 -101.8264 254° West 409 471 39,700 -689 Descending Denver Center
Sun 09:53:30 AM 40.6231 -101.9656 255° West 414 476 38,600 -1,623 Descending Denver Center
Sun 09:54:31 AM 40.5864 -102.1333 254° West 427 491 36,400 -1,770 Descending Denver Center
Sun 09:55:32 AM 40.5558 -102.2786 255° West 430 495 35,000 -689 Descending Denver Center
Sun 09:56:33 AM 40.5192 -102.4456 254° West 426 490 35,000  Level Denver Center
Sun 09:57:34 AM 40.4875 -102.5850 253° West 418 481 35,000  Level Denver Center
Sun 09:58:35 AM 40.4572 -102.7289 255° West 416 479 35,000 -1,033 Level Denver Center
Sun 09:59:36 AM 40.4242 -102.8753 254° West 417 480 32,900 -2,016 Descending Denver Center
Sun 10:00:37 AM 40.3917 -103.0161 253° West 404 465 30,900 -1,967 Descending Denver Center
Sun 10:01:38 AM 40.3614 -103.1531 254° West 388 447 28,900 -1,967 Descending Denver Center
Sun 10:02:39 AM 40.3319 -103.2839 254° West 372 428 26,900 -1,918 Descending Denver Center
Sun 10:03:40 AM 40.3028 -103.4097 253° West 360 414 25,000 -1,657 Descending Denver Center
Sun 10:04:53 AM 40.2744 -103.5314 253° West 349 402 23,200 -1,911 Descending Denver Center
Sun 10:05:55 AM 40.2383 -103.6889 253° West 337 388 20,700 -2,098 Descending Denver Center
Sun 10:06:56 AM 40.2117 -103.8031 253° West 333 383 18,900 -1,426 Descending Denver Center
Sun 10:07:57 AM 40.2036 -103.9097 264° West 289 333 17,800 -1,268 Descending Denver Center
Sun 10:08:59 AM 40.2150 -104.0139 278° West 291 335 16,300 -1,512 Descending Denver Center
Sun 10:10:00 AM 40.2253 -104.1242 277° West 287 330 14,700 -1,574 Descending Denver Center
Sun 10:11:01 AM 40.2353 -104.2294 277° West 292 336 13,100 -1,317 Descending Denver Center
Sun 10:12:03 AM 40.2450 -104.3333 277° West 290 334 12,000 -829 Descending Denver Center
Sun 10:13:04 AM 40.2322 -104.4192 259° West 255 293 11,400 -927 Descending Denver Center
Sun 10:14:06 AM 40.1933 -104.5011 238° Southwest 245 282 10,100 -1,171 Descending Denver Center
Sun 10:15:07 AM 40.1553 -104.5747 236° Southwest 247 284 9,000 -1,024 Descending Denver Center
Sun 10:16:09 AM 40.0958 -104.6144 207° Southwest 241 277 8,000 -976 Descending Denver Center
Sun 10:17:10 AM 40.0344 -104.6572 208° Southwest 234 269 7,000 -537 Descending Denver Center
Sun 10:18:12 AM 39.9828 -104.6878 204° Southwest 205 236 6,900 -439 Descending Denver Center
Sun 10:19:13 AM 39.9344 -104.6864 179° South 169 194 6,100 -780 Descending Denver Center
Sun 10:20:15 AM 39.8922 -104.6872 181° South 142 163 5,300 -774 Descending Denver Center
Sun 10:22:00 AM 39.8617 -104.6732 North  Level Estimated
Sun 10:29:00 AM 39.8617 -104.6732 North  Level Estimated
Sun 10:30:00 AM 39.8617 -104.6732 North  Level Estimated

Login

Don't have an account? Register now (free) for customized features, flight alerts, and more!